Time;durP1;ratioP1;P1;durP2;ratioP2;P2;SDS_P1;SDS_P2;PMS_P1;PMS_P2;Temp;Humidity;BMP_temperature;BMP_pressure;BME280_temperature;BME280_humidity;BME280_pressure;Samples;Min_cycle;Max_cycle;Signal;HPM_P1;HPM_P2
2022/09/07 00:00:15;;;;;;;20.52;15.83;;;;;;;;;;1820675;78;21134;-86
2022/09/07 00:02:45;;;;;;;19.40;15.75;;;;;;;;;;1829451;77;21159;-86
2022/09/07 00:05:15;;;;;;;21.75;16.90;;;;;;;;;;1885261;74;21139;-87
2022/09/07 00:07:45;;;;;;;19.82;16.87;;;;;;;;;;1876868;76;21089;-85
2022/09/07 00:10:16;;;;;;;21.75;18.10;;;;;;;;;;1886704;74;21068;-86
2022/09/07 00:12:47;;;;;;;19.32;16.23;;;;;;;;;;1837536;77;21229;-85
2022/09/07 00:15:17;;;;;;;20.90;16.85;;;;;;;;;;1830202;77;21097;-85
2022/09/07 00:17:48;;;;;;;24.32;17.20;;;;;;;;;;1822070;78;21149;-85
2022/09/07 00:20:18;;;;;;;19.40;16.27;;;;;;;;;;1830899;78;21110;-85
2022/09/07 00:22:48;;;;;;;20.05;16.90;;;;;;;;;;1829914;77;21141;-85
2022/09/07 00:25:19;;;;;;;21.12;17.45;;;;;;;;;;1831603;78;21093;-85
2022/09/07 00:27:49;;;;;;;20.50;17.17;;;;;;;;;;1806313;79;21613;-85
2022/09/07 00:30:19;;;;;;;21.35;17.82;;;;;;;;;;1805360;78;21225;-81
2022/09/07 00:32:49;;;;;;;20.68;17.85;;;;;;;;;;1829982;78;21688;-73
2022/09/07 00:35:19;;;;;;;20.35;17.73;;;;;;;;;;1816525;77;21108;-72
2022/09/07 00:37:50;;;;;;;23.05;18.20;;;;;;;;;;1830273;78;21169;-73
2022/09/07 00:40:20;;;;;;;20.65;18.55;;;;;;;;;;1831659;77;21275;-75
2022/09/07 00:42:51;;;;;;;21.00;18.25;;;;;;;;;;1827872;78;21158;-73
2022/09/07 00:45:21;;;;;;;21.40;18.87;;;;;;;;;;1829814;77;21161;-74
2022/09/07 00:47:53;;;;;;;24.00;20.27;;;;;;;;;;1831231;77;21169;-74
2022/09/07 00:50:24;;;;;;;26.85;19.92;;;;;;;;;;1885949;74;21156;-74
2022/09/07 00:52:56;;;;;;;22.00;19.15;;;;;;;;;;1872292;76;21162;-74
2022/09/07 00:55:27;;;;;;;22.95;19.73;;;;;;;;;;1876683;75;21077;-74
2022/09/07 00:57:58;;;;;;;21.35;19.07;;;;;;;;;;1880139;76;21189;-73
2022/09/07 01:00:28;;;;;;;23.32;20.25;;;;;;;;;;1819214;78;21244;-73
2022/09/07 01:03:00;;;;;;;22.95;18.67;;;;;;;;;;1838171;77;21204;-73
2022/09/07 01:05:32;;;;;;;21.02;18.82;;;;;;;;;;1808528;78;21181;-72
2022/09/07 01:08:04;;;;;;;21.27;19.17;;;;;;;;;;1852498;77;21237;-73
2022/09/07 01:10:34;;;;;;;22.40;20.20;;;;;;;;;;1843147;77;21239;-73
2022/09/07 01:13:05;;;;;;;23.18;20.75;;;;;;;;;;1843171;77;21619;-73
2022/09/07 01:15:35;;;;;;;23.80;21.10;;;;;;;;;;1885825;75;21583;-73
2022/09/07 01:18:06;;;;;;;23.73;20.68;;;;;;;;;;1892859;74;21170;-72
2022/09/07 01:20:36;;;;;;;26.20;21.87;;;;;;;;;;1880109;76;21540;-72
2022/09/07 01:23:08;;;;;;;24.05;21.25;;;;;;;;;;1815873;77;21148;-73
2022/09/07 01:25:39;;;;;;;25.37;21.02;;;;;;;;;;1840281;77;21772;-73
2022/09/07 01:28:11;;;;;;;25.88;22.00;;;;;;;;;;1833787;77;21221;-74
2022/09/07 01:30:42;;;;;;;23.98;21.35;;;;;;;;;;1824731;77;21239;-73
2022/09/07 01:33:14;;;;;;;23.62;20.88;;;;;;;;;;1830724;77;21167;-72
2022/09/07 01:35:45;;;;;;;27.32;21.65;;;;;;;;;;1833551;77;21099;-72
2022/09/07 01:38:17;;;;;;;22.98;20.35;;;;;;;;;;1825609;77;21189;-73
2022/09/07 01:40:49;;;;;;;23.92;20.60;;;;;;;;;;1828157;77;21207;-73
2022/09/07 01:43:20;;;;;;;23.05;20.55;;;;;;;;;;1814875;79;21188;-73
2022/09/07 01:45:52;;;;;;;22.58;20.32;;;;;;;;;;1820278;77;21087;-73
2022/09/07 01:48:23;;;;;;;23.60;21.07;;;;;;;;;;1827950;76;21154;-73
2022/09/07 01:50:54;;;;;;;24.05;21.33;;;;;;;;;;1828464;77;21746;-73
2022/09/07 01:53:24;;;;;;;25.27;21.60;;;;;;;;;;1844385;77;21225;-73
2022/09/07 01:55:56;;;;;;;22.85;20.45;;;;;;;;;;1811241;79;21238;-73
2022/09/07 01:58:27;;;;;;;23.12;18.67;;;;;;;;;;1837341;77;21617;-73
2022/09/07 02:01:00;;;;;;;24.55;19.95;;;;;;;;;;1823332;78;21110;-73
2022/09/07 02:03:32;;;;;;;23.15;19.07;;;;;;;;;;1830645;78;21177;-72
2022/09/07 02:06:03;;;;;;;25.20;19.12;;;;;;;;;;1881854;74;21152;-72
2022/09/07 02:08:35;;;;;;;26.20;18.37;;;;;;;;;;1899568;74;21191;-73
2022/09/07 02:11:07;;;;;;;20.45;18.35;;;;;;;;;;1848031;76;21139;-72
2022/09/07 02:13:38;;;;;;;21.17;18.80;;;;;;;;;;1864216;75;21146;-73
2022/09/07 02:16:08;;;;;;;22.05;18.40;;;;;;;;;;1861983;75;21073;-73
2022/09/07 02:18:39;;;;;;;21.68;18.95;;;;;;;;;;1860420;76;21189;-72
2022/09/07 02:21:11;;;;;;;23.35;20.17;;;;;;;;;;1854126;76;21232;-73
2022/09/07 02:23:42;;;;;;;21.23;18.92;;;;;;;;;;1861938;76;21124;-73
2022/09/07 02:26:14;;;;;;;21.23;19.05;;;;;;;;;;1862811;76;21163;-73
2022/09/07 02:28:44;;;;;;;19.95;17.82;;;;;;;;;;1854404;76;21472;-73
2022/09/07 02:31:15;;;;;;;22.75;17.87;;;;;;;;;;1859153;76;21169;-74
2022/09/07 02:33:46;;;;;;;20.52;18.52;;;;;;;;;;1836681;76;21090;-74
2022/09/07 02:36:17;;;;;;;19.82;17.82;;;;;;;;;;1904465;74;21130;-73
2022/09/07 02:38:48;;;;;;;21.12;18.92;;;;;;;;;;1907699;73;21115;-73
2022/09/07 02:41:19;;;;;;;19.73;17.65;;;;;;;;;;1904999;74;21604;-72
2022/09/07 02:43:53;;;;;;;21.52;18.12;;;;;;;;;;1902416;73;21099;-72
2022/09/07 02:46:24;;;;;;;21.48;17.98;;;;;;;;;;1891649;74;21166;-72
2022/09/07 02:48:56;;;;;;;21.07;16.97;;;;;;;;;;1893789;74;21606;-73
2022/09/07 02:51:28;;;;;;;19.25;17.30;;;;;;;;;;1907401;73;21231;-73
2022/09/07 02:53:59;;;;;;;18.92;16.93;;;;;;;;;;1924511;73;21188;-71
2022/09/07 02:56:30;;;;;;;23.50;18.95;;;;;;;;;;1899313;73;21547;-73
2022/09/07 02:59:02;;;;;;;20.40;17.20;;;;;;;;;;1895679;74;21215;-73
2022/09/07 03:01:34;;;;;;;22.95;17.55;;;;;;;;;;1887275;75;21087;-73
2022/09/07 03:04:03;;;;;;;20.92;16.67;;;;;;;;;;1885845;74;21140;-74
2022/09/07 03:06:35;;;;;;;19.10;15.80;;;;;;;;;;1905987;74;21147;-72
2022/09/07 03:09:06;;;;;;;18.48;16.50;;;;;;;;;;1887308;75;21541;-73
2022/09/07 03:11:37;;;;;;;18.37;16.48;;;;;;;;;;1887296;75;21139;-73
2022/09/07 03:14:08;;;;;;;17.52;15.78;;;;;;;;;;1890842;75;21172;-73
2022/09/07 03:16:38;;;;;;;18.05;15.93;;;;;;;;;;1885297;75;21056;-72
2022/09/07 03:19:09;;;;;;;18.73;16.70;;;;;;;;;;1891905;75;21111;-74
2022/09/07 03:21:39;;;;;;;17.48;15.45;;;;;;;;;;1892988;75;21153;-73
2022/09/07 03:24:09;;;;;;;16.95;15.15;;;;;;;;;;1880376;75;21136;-73
2022/09/07 03:26:40;;;;;;;17.30;15.53;;;;;;;;;;1887956;74;21127;-73
2022/09/07 03:29:11;;;;;;;17.05;15.45;;;;;;;;;;1883555;75;21663;-73
2022/09/07 03:31:41;;;;;;;22.05;16.48;;;;;;;;;;1834893;76;21126;-73
2022/09/07 03:34:11;;;;;;;17.82;15.83;;;;;;;;;;1826229;77;21206;-74
2022/09/07 03:36:41;;;;;;;19.02;15.53;;;;;;;;;;1837705;78;21564;-73
2022/09/07 03:39:12;;;;;;;18.12;15.85;;;;;;;;;;1837633;77;21742;-73
2022/09/07 03:41:43;;;;;;;17.82;15.10;;;;;;;;;;1837927;78;21617;-70
2022/09/07 03:44:13;;;;;;;17.62;15.72;;;;;;;;;;1837230;78;21172;-73
2022/09/07 03:46:43;;;;;;;21.15;16.70;;;;;;;;;;1838009;78;21149;-72
2022/09/07 03:49:15;;;;;;;19.40;15.63;;;;;;;;;;1836651;78;21497;-72
2022/09/07 03:51:45;;;;;;;17.60;15.80;;;;;;;;;;1837299;78;21177;-73
2022/09/07 03:54:15;;;;;;;17.80;14.68;;;;;;;;;;1837431;78;21142;-74
2022/09/07 03:56:46;;;;;;;17.75;15.63;;;;;;;;;;1837590;78;21660;-72
2022/09/07 03:59:16;;;;;;;17.10;15.40;;;;;;;;;;1837215;78;21133;-73
2022/09/07 04:01:46;;;;;;;17.37;14.53;;;;;;;;;;1837627;78;21180;-72
2022/09/07 04:04:16;;;;;;;16.93;15.13;;;;;;;;;;1837675;78;21196;-73
2022/09/07 04:06:47;;;;;;;17.95;15.70;;;;;;;;;;1837710;78;21088;-72
2022/09/07 04:09:17;;;;;;;16.57;14.85;;;;;;;;;;1830540;78;21189;-72
2022/09/07 04:11:48;;;;;;;17.50;15.75;;;;;;;;;;1784080;80;21153;-74
2022/09/07 04:14:18;;;;;;;20.00;15.10;;;;;;;;;;1783662;80;21114;-73
2022/09/07 04:16:49;;;;;;;15.83;14.15;;;;;;;;;;1782643;80;21626;-72
2022/09/07 04:19:19;;;;;;;16.97;14.95;;;;;;;;;;1839413;77;21145;-71
2022/09/07 04:21:50;;;;;;;18.70;15.83;;;;;;;;;;1838210;78;21223;-72
2022/09/07 04:24:20;;;;;;;16.30;14.65;;;;;;;;;;1829171;78;21120;-72
2022/09/07 04:26:51;;;;;;;17.98;14.95;;;;;;;;;;1828124;78;21128;-72
2022/09/07 04:29:21;;;;;;;16.00;14.38;;;;;;;;;;1828195;78;21235;-72
2022/09/07 04:31:51;;;;;;;16.37;14.65;;;;;;;;;;1821845;77;21159;-72
2022/09/07 04:34:21;;;;;;;16.57;14.87;;;;;;;;;;1828355;78;21146;-72
2022/09/07 04:36:52;;;;;;;17.32;14.73;;;;;;;;;;1828033;78;21150;-73
2022/09/07 04:39:22;;;;;;;17.07;13.60;;;;;;;;;;1828427;78;21617;-73
2022/09/07 04:41:53;;;;;;;17.02;15.20;;;;;;;;;;1828435;77;21170;-74
2022/09/07 04:44:24;;;;;;;14.87;13.40;;;;;;;;;;1828083;78;21779;-74
2022/09/07 04:46:54;;;;;;;16.62;13.72;;;;;;;;;;1828231;77;21125;-74
2022/09/07 04:49:24;;;;;;;18.30;15.58;;;;;;;;;;1828268;78;21597;-73
2022/09/07 04:52:13;;;;;;;17.50;15.68;;;;;;;;;;1828019;78;21211;-74
2022/09/07 04:54:44;;;;;;;15.80;14.15;;;;;;;;;;1867696;76;21179;-73
2022/09/07 04:57:14;;;;;;;15.98;14.28;;;;;;;;;;1862310;76;21110;-73
2022/09/07 04:59:45;;;;;;;16.82;15.13;;;;;;;;;;1841613;75;21161;-73
2022/09/07 05:02:15;;;;;;;19.10;14.28;;;;;;;;;;1876181;74;21226;-73
2022/09/07 05:04:46;;;;;;;18.67;14.95;;;;;;;;;;1865850;76;21653;-73
2022/09/07 05:07:16;;;;;;;17.02;15.28;;;;;;;;;;1863591;75;21059;-73
2022/09/07 05:09:47;;;;;;;17.82;15.53;;;;;;;;;;1850154;76;21125;-73
2022/09/07 05:12:17;;;;;;;17.90;14.78;;;;;;;;;;1837925;76;21263;-73
2022/09/07 05:14:47;;;;;;;19.00;15.10;;;;;;;;;;1853330;76;21131;-74
2022/09/07 05:17:18;;;;;;;18.92;15.20;;;;;;;;;;1868801;76;21197;-73
2022/09/07 05:19:48;;;;;;;17.87;15.35;;;;;;;;;;1866813;75;21094;-73
2022/09/07 05:22:19;;;;;;;16.02;14.30;;;;;;;;;;1859973;76;21237;-73
2022/09/07 05:24:49;;;;;;;18.00;16.15;;;;;;;;;;1865307;76;21088;-73
2022/09/07 05:27:20;;;;;;;16.40;14.73;;;;;;;;;;1869155;74;21240;-74
2022/09/07 05:29:50;;;;;;;16.02;14.33;;;;;;;;;;1864805;76;21191;-73
2022/09/07 05:32:21;;;;;;;18.10;15.45;;;;;;;;;;1860898;76;21201;-72
2022/09/07 05:34:52;;;;;;;15.65;14.10;;;;;;;;;;1869880;76;21086;-74
2022/09/07 05:37:23;;;;;;;18.65;14.53;;;;;;;;;;1861719;76;21498;-73
2022/09/07 05:39:55;;;;;;;16.23;14.63;;;;;;;;;;1863733;76;21126;-74
2022/09/07 05:42:25;;;;;;;16.82;15.03;;;;;;;;;;1861173;76;22023;-73
2022/09/07 05:44:56;;;;;;;17.82;14.25;;;;;;;;;;1865161;76;21214;-73
2022/09/07 05:47:26;;;;;;;16.17;14.50;;;;;;;;;;1777745;79;21194;-73
2022/09/07 05:49:57;;;;;;;16.02;13.30;;;;;;;;;;1822922;78;21109;-73
2022/09/07 05:52:27;;;;;;;16.55;14.30;;;;;;;;;;1818178;77;21109;-73
2022/09/07 05:54:57;;;;;;;16.37;14.63;;;;;;;;;;1813528;77;21105;-72
2022/09/07 05:57:29;;;;;;;17.25;15.03;;;;;;;;;;1839142;76;21094;-72
2022/09/07 05:59:59;;;;;;;15.48;13.85;;;;;;;;;;1850803;76;21123;-74
2022/09/07 06:02:30;;;;;;;16.55;14.23;;;;;;;;;;1843237;77;21189;-72
2022/09/07 06:05:01;;;;;;;16.27;14.40;;;;;;;;;;1810403;77;21187;-73
2022/09/07 06:07:32;;;;;;;15.58;13.98;;;;;;;;;;1873266;75;21690;-72
2022/09/07 06:10:02;;;;;;;15.75;14.15;;;;;;;;;;1873968;76;21153;-72
2022/09/07 06:12:34;;;;;;;15.98;14.38;;;;;;;;;;1867010;76;21730;-72
2022/09/07 06:15:04;;;;;;;16.85;14.43;;;;;;;;;;1871875;76;21154;-72
2022/09/07 06:17:34;;;;;;;18.17;15.25;;;;;;;;;;1842193;76;21156;-74
2022/09/07 06:20:06;;;;;;;15.13;13.58;;;;;;;;;;1867051;75;21136;-73
2022/09/07 06:22:36;;;;;;;18.45;15.20;;;;;;;;;;1875354;75;22168;-73
2022/09/07 06:25:07;;;;;;;15.90;14.30;;;;;;;;;;1883199;75;21170;-73
2022/09/07 06:27:38;;;;;;;15.58;13.90;;;;;;;;;;1866132;75;21080;-74
2022/09/07 06:30:09;;;;;;;16.75;15.05;;;;;;;;;;1873636;74;21092;-73
2022/09/07 06:32:39;;;;;;;16.30;14.70;;;;;;;;;;1849361;76;21131;-74
2022/09/07 06:35:10;;;;;;;15.85;13.85;;;;;;;;;;1849089;76;21216;-74
2022/09/07 06:37:41;;;;;;;16.52;14.75;;;;;;;;;;1799662;78;21159;-72
2022/09/07 06:40:11;;;;;;;18.00;14.53;;;;;;;;;;1823971;78;21165;-72
2022/09/07 06:42:42;;;;;;;16.97;14.33;;;;;;;;;;1880675;75;21108;-72
2022/09/07 06:45:12;;;;;;;15.95;14.23;;;;;;;;;;1881958;75;21140;-73
2022/09/07 06:47:42;;;;;;;14.55;13.05;;;;;;;;;;1862865;76;21143;-73
2022/09/07 06:50:13;;;;;;;14.13;12.73;;;;;;;;;;1869089;76;21112;-73
2022/09/07 06:52:44;;;;;;;16.60;13.65;;;;;;;;;;1870504;76;21120;-73
2022/09/07 06:55:15;;;;;;;15.08;13.45;;;;;;;;;;1858033;77;21184;-73
2022/09/07 06:57:46;;;;;;;15.75;14.10;;;;;;;;;;1867712;76;21157;-74
2022/09/07 07:00:17;;;;;;;17.57;13.68;;;;;;;;;;1856309;77;21095;-73
2022/09/07 07:02:47;;;;;;;16.20;13.60;;;;;;;;;;1868914;75;21089;-72
2022/09/07 07:05:17;;;;;;;19.32;13.32;;;;;;;;;;1859739;76;21196;-72
2022/09/07 07:07:47;;;;;;;14.65;13.28;;;;;;;;;;1877842;75;21138;-73
2022/09/07 07:10:17;;;;;;;15.40;13.90;;;;;;;;;;1870418;75;21168;-72
2022/09/07 07:12:51;;;;;;;14.73;13.03;;;;;;;;;;1866800;75;21448;-73
2022/09/07 07:15:21;;;;;;;15.18;13.60;;;;;;;;;;1868997;75;21117;-70
2022/09/07 07:17:51;;;;;;;16.60;13.65;;;;;;;;;;1868788;75;21189;-72
2022/09/07 07:20:23;;;;;;;15.55;13.40;;;;;;;;;;1864997;74;21127;-72
2022/09/07 07:22:54;;;;;;;15.40;13.75;;;;;;;;;;1860230;75;21728;-73
2022/09/07 07:25:24;;;;;;;15.83;14.15;;;;;;;;;;1859464;76;21123;-75
2022/09/07 07:27:55;;;;;;;17.57;13.40;;;;;;;;;;1862320;76;21100;-74
2022/09/07 07:30:25;;;;;;;15.45;13.72;;;;;;;;;;1858577;76;21123;-72
2022/09/07 07:32:57;;;;;;;14.70;13.35;;;;;;;;;;1873260;75;21442;-75
2022/09/07 07:35:27;;;;;;;15.13;13.62;;;;;;;;;;1867020;75;21240;-74
2022/09/07 07:37:57;;;;;;;15.43;13.90;;;;;;;;;;1866640;74;21145;-73
2022/09/07 07:40:29;;;;;;;16.20;14.18;;;;;;;;;;1858546;77;21191;-72
2022/09/07 07:43:01;;;;;;;17.37;14.15;;;;;;;;;;1858072;76;21218;-74
2022/09/07 07:45:31;;;;;;;14.40;12.90;;;;;;;;;;1858647;75;21600;-71
2022/09/07 07:48:03;;;;;;;16.23;14.47;;;;;;;;;;1877123;75;21207;-72
2022/09/07 07:50:34;;;;;;;15.55;13.95;;;;;;;;;;1860382;76;21103;-75
2022/09/07 07:53:05;;;;;;;16.70;14.98;;;;;;;;;;1865304;75;21156;-73
2022/09/07 07:55:37;;;;;;;15.20;13.60;;;;;;;;;;1896076;73;21143;-74
2022/09/07 07:58:08;;;;;;;15.60;13.93;;;;;;;;;;1925262;73;21104;-73
2022/09/07 08:00:38;;;;;;;16.12;14.43;;;;;;;;;;1924841;73;21149;-74
2022/09/07 08:03:10;;;;;;;15.78;14.20;;;;;;;;;;1922932;73;21074;-73
2022/09/07 08:05:40;;;;;;;16.00;14.40;;;;;;;;;;1905523;73;21169;-73
2022/09/07 08:08:10;;;;;;;15.28;13.70;;;;;;;;;;1913246;73;21637;-72
2022/09/07 08:10:41;;;;;;;16.32;14.70;;;;;;;;;;1916795;73;21145;-73
2022/09/07 08:13:11;;;;;;;18.32;14.15;;;;;;;;;;1926116;73;21603;-73
2022/09/07 08:15:44;;;;;;;17.17;14.58;;;;;;;;;;1914817;73;21175;-74
2022/09/07 08:18:13;;;;;;;16.60;14.65;;;;;;;;;;1920277;73;21161;-73
2022/09/07 08:20:44;;;;;;;16.67;14.90;;;;;;;;;;1922177;73;21233;-73
2022/09/07 08:23:14;;;;;;;15.95;14.35;;;;;;;;;;1926792;73;21127;-74
2022/09/07 08:25:45;;;;;;;15.58;14.07;;;;;;;;;;1920150;73;21156;-73
2022/09/07 08:28:16;;;;;;;16.07;14.45;;;;;;;;;;1916161;73;21150;-74
2022/09/07 08:30:46;;;;;;;15.45;13.85;;;;;;;;;;1913279;73;21124;-74
2022/09/07 08:33:17;;;;;;;18.48;14.70;;;;;;;;;;1914006;73;21200;-75
2022/09/07 08:35:48;;;;;;;16.62;14.95;;;;;;;;;;1913901;73;21621;-73
2022/09/07 08:38:18;;;;;;;17.52;14.47;;;;;;;;;;1915412;73;21228;-74
2022/09/07 08:40:49;;;;;;;16.45;14.75;;;;;;;;;;1912882;73;21158;-74
2022/09/07 08:43:20;;;;;;;17.62;14.58;;;;;;;;;;1911605;73;21158;-75
2022/09/07 08:45:52;;;;;;;17.60;15.75;;;;;;;;;;1924956;73;21123;-75
2022/09/07 08:48:23;;;;;;;18.00;16.10;;;;;;;;;;1914083;73;21087;-74
2022/09/07 08:50:53;;;;;;;18.45;15.32;;;;;;;;;;1923245;73;21220;-77
2022/09/07 08:53:24;;;;;;;19.07;16.42;;;;;;;;;;1919828;73;21203;-75
2022/09/07 08:55:56;;;;;;;18.42;16.40;;;;;;;;;;1921483;73;21144;-75
2022/09/07 08:58:27;;;;;;;19.35;16.37;;;;;;;;;;1921838;73;21179;-76
2022/09/07 09:00:59;;;;;;;18.95;16.95;;;;;;;;;;1908909;73;21153;-75
2022/09/07 09:03:32;;;;;;;19.67;16.50;;;;;;;;;;1918781;73;21284;-75
2022/09/07 09:06:04;;;;;;;18.77;16.73;;;;;;;;;;1873849;75;21150;-75
2022/09/07 09:08:36;;;;;;;18.85;16.85;;;;;;;;;;1872416;75;21611;-76
2022/09/07 09:11:08;;;;;;;19.80;16.70;;;;;;;;;;1914132;73;21172;-75
2022/09/07 09:13:39;;;;;;;19.15;16.52;;;;;;;;;;1915523;73;21151;-76
2022/09/07 09:16:11;;;;;;;18.73;16.80;;;;;;;;;;1910963;73;21089;-75
2022/09/07 09:19:00;;;;;;;18.15;16.20;;;;;;;;;;1920389;73;21111;-75
2022/09/07 09:21:31;;;;;;;18.65;16.52;;;;;;;;;;1922328;73;21634;-75
2022/09/07 09:24:02;;;;;;;18.35;16.37;;;;;;;;;;1923198;73;21072;-75
2022/09/07 09:26:33;;;;;;;18.27;15.63;;;;;;;;;;1912555;73;21127;-75
2022/09/07 09:29:06;;;;;;;21.15;17.00;;;;;;;;;;1884578;75;21764;-75
2022/09/07 09:31:36;;;;;;;18.87;16.97;;;;;;;;;;1885837;75;21124;-75
2022/09/07 09:34:06;;;;;;;19.35;16.00;;;;;;;;;;1878505;75;21879;-75
2022/09/07 09:36:38;;;;;;;18.05;16.35;;;;;;;;;;1878104;75;21684;-76
2022/09/07 09:39:09;;;;;;;19.25;17.15;;;;;;;;;;1876362;75;21167;-75
2022/09/07 09:41:40;;;;;;;19.77;16.37;;;;;;;;;;1884111;75;21151;-75
2022/09/07 09:44:11;;;;;;;19.52;16.62;;;;;;;;;;1885378;75;21139;-75
2022/09/07 09:46:45;;;;;;;18.67;16.52;;;;;;;;;;1874610;75;21186;-75
2022/09/07 09:49:16;;;;;;;19.02;17.05;;;;;;;;;;1881476;75;21182;-75
2022/09/07 09:51:51;;;;;;;20.85;17.77;;;;;;;;;;1885545;75;21160;-75
2022/09/07 09:54:21;;;;;;;19.48;17.02;;;;;;;;;;1875596;75;21115;-75
2022/09/07 09:56:52;;;;;;;21.90;18.07;;;;;;;;;;1880974;75;21138;-75
2022/09/07 09:59:23;;;;;;;18.15;16.40;;;;;;;;;;1890748;75;21151;-76
2022/09/07 10:01:55;;;;;;;20.60;18.40;;;;;;;;;;1875569;75;21155;-74
2022/09/07 10:04:30;;;;;;;21.37;17.90;;;;;;;;;;1848388;76;21239;-75
2022/09/07 10:07:01;;;;;;;20.50;18.17;;;;;;;;;;1882248;75;21179;-74
2022/09/07 10:09:32;;;;;;;20.17;18.17;;;;;;;;;;1888506;75;21128;-73
2022/09/07 10:12:05;;;;;;;19.57;17.57;;;;;;;;;;1917960;73;21167;-72
2022/09/07 10:14:37;;;;;;;20.60;17.57;;;;;;;;;;1913150;73;21123;-72
2022/09/07 10:17:09;;;;;;;19.98;17.87;;;;;;;;;;1914804;73;21158;-74
2022/09/07 10:19:41;;;;;;;21.82;18.77;;;;;;;;;;1922457;73;21162;-74
2022/09/07 10:22:12;;;;;;;21.80;18.62;;;;;;;;;;1915015;74;21207;-74
2022/09/07 10:24:42;;;;;;;20.82;18.70;;;;;;;;;;1910246;73;21255;-75
2022/09/07 10:27:14;;;;;;;21.02;18.92;;;;;;;;;;1918304;74;21180;-74
2022/09/07 10:29:44;;;;;;;20.82;18.67;;;;;;;;;;1864018;76;21188;-73
2022/09/07 10:32:16;;;;;;;21.23;18.10;;;;;;;;;;1806913;78;21150;-73
2022/09/07 10:34:46;;;;;;;20.35;17.90;;;;;;;;;;1808869;77;21139;-74
2022/09/07 10:37:18;;;;;;;23.47;18.35;;;;;;;;;;1892878;74;21123;-74
2022/09/07 10:39:49;;;;;;;20.20;17.98;;;;;;;;;;1912297;74;21552;-73
2022/09/07 10:42:21;;;;;;;22.37;19.45;;;;;;;;;;1906643;74;21167;-74
2022/09/07 10:44:52;;;;;;;23.38;20.15;;;;;;;;;;1905406;74;21174;-74
2022/09/07 10:47:24;;;;;;;25.77;19.23;;;;;;;;;;1904407;74;21169;-73
2022/09/07 10:49:55;;;;;;;23.18;18.40;;;;;;;;;;1906313;74;21212;-74
2022/09/07 10:52:28;;;;;;;22.13;19.75;;;;;;;;;;1823877;77;21224;-74
2022/09/07 10:55:00;;;;;;;21.87;19.57;;;;;;;;;;1909147;74;21095;-74
2022/09/07 10:57:31;;;;;;;23.52;21.02;;;;;;;;;;1903528;74;21139;-74
2022/09/07 11:00:04;;;;;;;21.97;19.60;;;;;;;;;;1913410;74;21228;-74
2022/09/07 11:02:35;;;;;;;22.67;19.07;;;;;;;;;;1913175;74;21578;-74
2022/09/07 11:05:12;;;;;;;23.67;21.05;;;;;;;;;;1875343;72;21160;-74
2022/09/07 11:07:42;;;;;;;24.47;21.20;;;;;;;;;;1874957;75;21225;-75
2022/09/07 11:10:13;;;;;;;24.60;20.82;;;;;;;;;;1861940;75;21755;-75
2022/09/07 11:12:44;;;;;;;22.55;20.05;;;;;;;;;;1875980;75;21241;-75
2022/09/07 11:15:15;;;;;;;22.82;20.43;;;;;;;;;;1877234;75;21237;-75
2022/09/07 11:17:47;;;;;;;22.80;20.25;;;;;;;;;;1878831;75;21172;-75
2022/09/07 11:20:20;;;;;;;23.22;20.85;;;;;;;;;;1872612;75;21200;-75
2022/09/07 11:22:51;;;;;;;23.50;20.27;;;;;;;;;;1866960;75;21280;-73
2022/09/07 11:25:23;;;;;;;23.30;20.60;;;;;;;;;;1872591;75;21681;-73
2022/09/07 11:27:55;;;;;;;24.07;20.02;;;;;;;;;;1864937;75;21687;-74
2022/09/07 11:30:27;;;;;;;23.50;20.70;;;;;;;;;;1859680;75;21725;-75
2022/09/07 11:32:58;;;;;;;23.38;20.95;;;;;;;;;;1865716;75;21093;-74
2022/09/07 11:35:30;;;;;;;21.77;19.55;;;;;;;;;;1875350;74;21126;-73
2022/09/07 11:38:02;;;;;;;25.37;21.62;;;;;;;;;;1923330;73;21137;-74
2022/09/07 11:40:34;;;;;;;22.70;20.27;;;;;;;;;;1905468;74;21136;-75
2022/09/07 11:43:03;;;;;;;22.42;20.23;;;;;;;;;;1907675;73;21276;-75
2022/09/07 11:45:36;;;;;;;23.25;20.68;;;;;;;;;;1898328;74;21229;-75
2022/09/07 11:48:08;;;;;;;27.42;21.93;;;;;;;;;;1903240;73;21145;-75
2022/09/07 11:50:40;;;;;;;25.05;20.70;;;;;;;;;;1910013;74;21108;-75
2022/09/07 11:53:12;;;;;;;22.35;19.95;;;;;;;;;;1893785;73;21676;-75
2022/09/07 11:55:44;;;;;;;25.90;21.70;;;;;;;;;;1808112;77;21148;-74
2022/09/07 11:58:15;;;;;;;23.73;21.17;;;;;;;;;;1827973;77;21177;-74
2022/09/07 12:00:47;;;;;;;22.13;19.90;;;;;;;;;;1897000;73;21154;-74
2022/09/07 12:03:17;;;;;;;23.45;21.05;;;;;;;;;;1898136;74;21201;-74
2022/09/07 12:05:50;;;;;;;23.12;20.72;;;;;;;;;;1889046;74;21427;-75
2022/09/07 12:08:21;;;;;;;23.70;20.92;;;;;;;;;;1869765;75;21126;-75
2022/09/07 12:10:53;;;;;;;25.37;21.95;;;;;;;;;;1876834;74;21172;-74
2022/09/07 12:13:24;;;;;;;23.18;20.75;;;;;;;;;;1850688;75;21248;-74
2022/09/07 12:15:54;;;;;;;27.00;21.48;;;;;;;;;;1849810;77;21213;-74
2022/09/07 12:18:26;;;;;;;26.40;21.82;;;;;;;;;;1868705;75;21616;-75
2022/09/07 12:20:56;;;;;;;24.77;22.13;;;;;;;;;;1830577;76;21628;-74
2022/09/07 12:23:27;;;;;;;26.20;23.38;;;;;;;;;;1828615;77;21176;-75
2022/09/07 12:25:59;;;;;;;28.60;23.05;;;;;;;;;;1871112;75;21094;-75
2022/09/07 12:28:28;;;;;;;24.40;21.97;;;;;;;;;;1876127;75;21201;-75
2022/09/07 12:31:00;;;;;;;26.95;23.87;;;;;;;;;;1873486;75;21148;-75
2022/09/07 12:33:31;;;;;;;28.62;23.87;;;;;;;;;;1880680;75;22122;-72
2022/09/07 12:36:02;;;;;;;30.10;23.75;;;;;;;;;;1843390;76;22195;-75
2022/09/07 12:38:34;;;;;;;27.87;22.40;;;;;;;;;;1831676;76;21184;-73
2022/09/07 12:41:04;;;;;;;25.57;22.90;;;;;;;;;;1826726;77;21146;-75
2022/09/07 12:43:36;;;;;;;27.48;23.25;;;;;;;;;;1878412;75;21137;-76
2022/09/07 12:46:07;;;;;;;25.72;23.15;;;;;;;;;;1886550;74;21215;-75
2022/09/07 12:48:40;;;;;;;27.20;22.90;;;;;;;;;;1875783;75;21122;-74
2022/09/07 12:51:11;;;;;;;25.92;23.10;;;;;;;;;;1892300;74;21101;-76
2022/09/07 12:54:00;;;;;;;26.90;24.10;;;;;;;;;;1872979;75;21158;-73
2022/09/07 12:56:32;;;;;;;28.80;24.23;;;;;;;;;;1850473;76;21137;-74
2022/09/07 12:59:03;;;;;;;26.07;23.38;;;;;;;;;;1850897;76;21122;-74
2022/09/07 13:01:35;;;;;;;30.32;23.85;;;;;;;;;;1820922;76;21205;-73
2022/09/07 13:04:06;;;;;;;28.83;23.90;;;;;;;;;;1830445;76;21134;-74
2022/09/07 13:06:38;;;;;;;26.77;23.83;;;;;;;;;;1853623;75;21220;-74
2022/09/07 13:09:10;;;;;;;27.45;24.55;;;;;;;;;;1866250;74;21193;-74
2022/09/07 13:11:41;;;;;;;26.23;23.12;;;;;;;;;;1819197;77;22187;-74
2022/09/07 13:14:12;;;;;;;26.15;23.55;;;;;;;;;;1859434;75;21131;-74
2022/09/07 13:16:44;;;;;;;28.90;24.55;;;;;;;;;;1815796;77;21267;-74
2022/09/07 13:19:17;;;;;;;31.50;24.63;;;;;;;;;;1850491;75;21121;-73
2022/09/07 13:21:48;;;;;;;26.65;23.77;;;;;;;;;;1851268;76;21624;-74
2022/09/07 13:24:18;;;;;;;27.73;24.60;;;;;;;;;;1849921;76;21120;-74
2022/09/07 13:26:51;;;;;;;28.73;25.65;;;;;;;;;;1824712;76;21208;-73
2022/09/07 13:29:22;;;;;;;27.80;24.80;;;;;;;;;;1850711;75;21764;-74
2022/09/07 13:31:52;;;;;;;27.50;24.47;;;;;;;;;;1823721;77;21652;-73
2022/09/07 13:34:23;;;;;;;27.37;24.60;;;;;;;;;;1820807;76;21167;-74
2022/09/07 13:36:53;;;;;;;29.87;24.82;;;;;;;;;;1809190;77;21645;-74
2022/09/07 13:39:24;;;;;;;27.87;24.77;;;;;;;;;;1839598;76;21535;-74
2022/09/07 13:41:56;;;;;;;31.05;25.10;;;;;;;;;;1853077;74;21631;-74
2022/09/07 13:44:27;;;;;;;30.60;24.60;;;;;;;;;;1855872;73;21165;-72
2022/09/07 13:46:59;;;;;;;30.12;26.95;;;;;;;;;;1850428;76;21147;-71
2022/09/07 13:49:30;;;;;;;30.08;25.05;;;;;;;;;;1849385;74;21148;-73
2022/09/07 13:52:01;;;;;;;28.17;24.52;;;;;;;;;;1857990;76;21193;-73
2022/09/07 13:54:31;;;;;;;29.23;25.52;;;;;;;;;;1853774;76;21093;-74
2022/09/07 13:57:01;;;;;;;28.25;25.25;;;;;;;;;;1858860;75;21699;-74
2022/09/07 13:59:32;;;;;;;36.17;27.62;;;;;;;;;;1890252;74;21463;-74
2022/09/07 14:02:03;;;;;;;31.75;27.70;;;;;;;;;;1866221;75;21237;-74
2022/09/07 14:04:35;;;;;;;30.90;26.25;;;;;;;;;;1887484;74;21160;-75
2022/09/07 14:07:06;;;;;;;29.48;26.30;;;;;;;;;;1869674;75;21128;-75
2022/09/07 14:09:36;;;;;;;29.95;25.52;;;;;;;;;;1881789;74;21830;-75
2022/09/07 14:12:07;;;;;;;29.87;26.60;;;;;;;;;;1847706;76;21281;-74
2022/09/07 14:14:38;;;;;;;30.45;27.00;;;;;;;;;;1854790;76;21214;-75
2022/09/07 14:17:09;;;;;;;32.40;28.05;;;;;;;;;;1851801;76;21234;-74
2022/09/07 14:19:39;;;;;;;33.60;28.77;;;;;;;;;;1849419;76;21125;-73
2022/09/07 14:22:10;;;;;;;31.87;28.35;;;;;;;;;;1845714;76;21190;-74
2022/09/07 14:24:42;;;;;;;35.95;30.08;;;;;;;;;;1848074;76;21282;-74
2022/09/07 14:27:13;;;;;;;33.40;29.85;;;;;;;;;;1886051;74;21170;-74
2022/09/07 14:29:44;;;;;;;32.67;29.18;;;;;;;;;;1884712;74;21782;-75
2022/09/07 14:32:15;;;;;;;33.50;30.02;;;;;;;;;;1880789;74;21690;-74
2022/09/07 14:34:45;;;;;;;35.30;31.55;;;;;;;;;;1884936;74;21203;-74
2022/09/07 14:37:17;;;;;;;36.38;30.97;;;;;;;;;;1883068;74;21560;-74